Time;durP1;ratioP1;P1;durP2;ratioP2;P2;SDS_P1;SDS_P2;PMS_P1;PMS_P2;Temp;Humidity;BMP_temperature;BMP_pressure;BME280_temperature;BME280_humidity;BME280_pressure;Samples;Min_cycle;Max_cycle;Signal;HPM_P1;HPM_P2
2023/04/04 00:00:57;;;;;;;5.60;4.30;;;;;;;2.51;82.97;101235.68;110052;1241;59168;-67
2023/04/04 00:03:26;;;;;;;5.00;3.80;;;;;;;2.39;83.03;101242.21;109784;1238;73539;-69
2023/04/04 00:05:55;;;;;;;4.40;3.50;;;;;;;2.35;83.22;101243.89;110015;1241;61145;-70
2023/04/04 00:08:24;;;;;;;5.80;3.70;;;;;;;2.38;82.96;101236.92;110049;1238;61777;-69
2023/04/04 00:11:00;;;;;;;5.40;3.60;;;;;;;2.33;82.89;101230.34;109937;1238;73978;-70
2023/04/04 00:13:28;;;;;;;5.10;3.50;;;;;;;2.33;83.14;101219.38;109953;1238;71772;-69
2023/04/04 00:15:57;;;;;;;4.20;3.30;;;;;;;2.32;83.59;101223.17;110069;1242;59721;-67
2023/04/04 00:18:26;;;;;;;5.00;3.90;;;;;;;2.36;83.67;101216.02;110033;1241;63289;-68
2023/04/04 00:20:55;;;;;;;5.70;3.50;;;;;;;2.37;83.36;101212.36;110062;1239;58280;-69
2023/04/04 00:23:24;;;;;;;4.70;3.70;;;;;;;2.34;83.18;101209.17;109948;1238;60222;-68
2023/04/04 00:25:53;;;;;;;4.50;3.40;;;;;;;2.30;83.40;101198.48;109945;1238;73037;-68
2023/04/04 00:28:22;;;;;;;5.80;3.40;;;;;;;2.28;83.41;101193.55;109940;1238;72527;-67
2023/04/04 00:30:50;;;;;;;4.80;3.70;;;;;;;2.29;83.51;101190.25;109906;1238;70853;-68
2023/04/04 00:33:19;;;;;;;4.70;3.30;;;;;;;2.26;83.62;101184.88;110072;1238;64414;-69
2023/04/04 00:35:48;;;;;;;6.50;4.20;;;;;;;2.24;83.63;101189.20;109954;1240;58316;-68
2023/04/04 00:38:17;;;;;;;3.20;2.50;;;;;;;2.18;83.77;101184.92;110076;1241;58126;-68
2023/04/04 00:40:49;;;;;;;5.80;3.90;;;;;;;2.16;83.94;101186.39;109957;1242;63751;-70
2023/04/04 00:43:18;;;;;;;4.50;3.90;;;;;;;2.25;83.50;101197.25;109968;1238;72242;-69
2023/04/04 00:45:47;;;;;;;6.30;4.20;;;;;;;2.23;83.67;101188.05;110047;1238;70705;-69
2023/04/04 00:48:16;;;;;;;4.60;3.80;;;;;;;2.22;83.74;101188.24;109778;1238;64372;-68
2023/04/04 00:50:44;;;;;;;5.60;4.10;;;;;;;2.26;83.58;101182.30;109930;1242;62710;-69
2023/04/04 00:53:13;;;;;;;5.80;4.00;;;;;;;2.19;83.75;101179.58;110041;1241;58244;-69
2023/04/04 00:55:42;;;;;;;5.20;3.90;;;;;;;2.19;83.68;101178.20;110038;1240;63781;-69
2023/04/04 00:58:11;;;;;;;5.60;3.80;;;;;;;2.19;84.02;101174.94;110048;1242;61805;-69
2023/04/04 01:00:41;;;;;;;4.80;3.80;;;;;;;2.15;84.42;101171.61;109948;1242;60041;-69
2023/04/04 01:03:11;;;;;;;5.20;4.00;;;;;;;2.16;84.57;101173.84;109782;1238;73876;-69
2023/04/04 01:05:41;;;;;;;5.90;4.30;;;;;;;2.15;84.24;101173.15;109744;1244;60447;-69
2023/04/04 01:08:10;;;;;;;5.70;3.80;;;;;;;2.06;85.18;101166.73;109968;1242;58232;-69
2023/04/04 01:10:40;;;;;;;5.50;4.10;;;;;;;2.03;85.77;101164.93;109969;1242;63951;-69
2023/04/04 01:13:10;;;;;;;5.40;4.00;;;;;;;2.18;84.76;101165.50;109714;1238;72213;-69
2023/04/04 01:15:40;;;;;;;6.10;4.20;;;;;;;2.18;84.69;101159.49;109813;1239;60419;-69
2023/04/04 01:18:13;;;;;;;5.60;4.40;;;;;;;2.18;84.72;101157.08;109926;1238;62794;-70
2023/04/04 01:21:11;;;;;;;7.40;4.70;;;;;;;2.18;84.60;101153.16;109883;1242;58279;-68
2023/04/04 01:24:03;;;;;;;5.10;4.10;;;;;;;2.13;84.75;101152.09;109949;1239;58240;-69
2023/04/04 01:26:41;;;;;;;5.80;4.10;;;;;;;2.07;84.93;101148.99;109845;1238;74331;-69
2023/04/04 01:29:10;;;;;;;7.80;5.00;;;;;;;2.07;84.71;101150.55;109641;1245;62444;-69
2023/04/04 01:31:47;;;;;;;4.70;3.50;;;;;;;2.03;85.23;101145.02;109755;1238;69922;-69
2023/04/04 01:34:43;;;;;;;6.00;4.20;;;;;;;2.08;84.76;101139.85;109746;1242;73859;-69
2023/04/04 01:37:24;;;;;;;6.10;4.90;;;;;;;2.03;85.12;101136.41;109567;1244;58205;-69
2023/04/04 01:40:08;;;;;;;5.20;4.30;;;;;;;2.00;85.46;101127.23;109753;1241;58287;-69
2023/04/04 01:42:39;;;;;;;7.10;4.80;;;;;;;2.06;85.23;101122.76;109759;1241;63267;-69
2023/04/04 01:45:08;;;;;;;6.60;4.60;;;;;;;2.09;85.23;101114.59;109590;1244;72202;-69
2023/04/04 01:47:41;;;;;;;6.10;4.50;;;;;;;2.13;85.04;101114.81;109747;1237;70056;-68
2023/04/04 01:50:15;;;;;;;5.10;3.90;;;;;;;2.10;84.96;101111.28;109536;1237;74176;-68
2023/04/04 01:52:44;;;;;;;7.50;3.80;;;;;;;2.10;84.71;101113.02;109552;1242;59720;-68
2023/04/04 01:55:13;;;;;;;6.20;4.70;;;;;;;2.09;84.61;101112.52;109737;1241;60752;-68
2023/04/04 01:57:41;;;;;;;6.40;4.50;;;;;;;1.99;85.17;101114.02;109586;1238;72228;-68
2023/04/04 02:00:11;;;;;;;6.80;4.90;;;;;;;2.03;85.10;101108.23;109747;1242;71349;-68
2023/04/04 02:02:43;;;;;;;5.50;3.40;;;;;;;2.05;85.19;101108.68;109865;1237;69971;-69
2023/04/04 02:05:12;;;;;;;6.30;5.00;;;;;;;2.09;84.80;101109.79;109726;1238;73894;-69
2023/04/04 02:07:40;;;;;;;7.40;4.70;;;;;;;1.91;85.35;101111.00;109770;1241;59486;-69
2023/04/04 02:10:17;;;;;;;7.70;5.00;;;;;;;1.96;85.24;101110.67;109798;1238;57717;-70
2023/04/04 02:12:46;;;;;;;5.60;4.20;;;;;;;1.97;85.14;101107.38;109812;1238;71648;-70
2023/04/04 02:15:15;;;;;;;5.70;4.50;;;;;;;1.93;85.40;101111.80;109864;1238;70746;-69
2023/04/04 02:17:48;;;;;;;7.20;4.40;;;;;;;1.97;85.18;101103.09;109859;1238;60335;-69
2023/04/04 02:20:18;;;;;;;7.50;4.60;;;;;;;2.01;84.96;101107.64;109650;1238;63385;-68
2023/04/04 02:22:52;;;;;;;5.60;4.50;;;;;;;2.02;84.76;101107.08;109754;1238;61294;-70
2023/04/04 02:25:23;;;;;;;6.30;4.20;;;;;;;1.97;85.26;101110.82;109643;1238;59066;-69
2023/04/04 02:27:52;;;;;;;4.70;3.30;;;;;;;2.02;85.10;101114.45;109635;1238;62792;-69
2023/04/04 02:30:21;;;;;;;7.90;4.90;;;;;;;2.03;84.92;101121.62;109903;1238;61512;-68
2023/04/04 02:32:50;;;;;;;8.80;5.70;;;;;;;1.96;85.34;101118.23;109866;1239;59947;-69
2023/04/04 02:35:20;;;;;;;7.00;5.30;;;;;;;1.97;85.57;101120.45;109762;1238;63188;-69
2023/04/04 02:37:50;;;;;;;6.60;4.80;;;;;;;2.00;85.31;101119.66;109828;1241;59589;-69
2023/04/04 02:40:29;;;;;;;7.60;5.30;;;;;;;1.98;85.28;101117.34;109906;1238;60366;-69
2023/04/04 02:42:59;;;;;;;7.70;4.90;;;;;;;2.03;85.22;101119.06;109825;1239;74767;-69
2023/04/04 02:45:27;;;;;;;6.90;5.00;;;;;;;2.03;85.18;101129.19;109866;1241;72162;-69
2023/04/04 02:48:02;;;;;;;7.30;4.90;;;;;;;1.97;85.54;101125.75;109828;1237;60404;-69
2023/04/04 02:50:38;;;;;;;7.30;5.60;;;;;;;2.00;85.32;101124.65;109786;1238;62525;-69
2023/04/04 02:53:08;;;;;;;8.60;5.80;;;;;;;1.95;85.67;101126.16;109872;1242;62054;-69
2023/04/04 02:55:37;;;;;;;7.70;4.70;;;;;;;2.03;85.33;101126.44;109832;1242;60786;-69
2023/04/04 02:58:05;;;;;;;7.00;5.10;;;;;;;2.03;85.17;101123.02;109875;1238;74018;-69
2023/04/04 03:00:34;;;;;;;7.60;5.60;;;;;;;2.00;85.55;101121.91;109911;1238;62359;-69
2023/04/04 03:03:04;;;;;;;7.30;5.60;;;;;;;1.99;85.74;101123.30;109941;1237;59876;-69
2023/04/04 03:05:37;;;;;;;7.70;5.00;;;;;;;1.93;86.32;101121.95;109891;1238;71957;-69
2023/04/04 03:08:05;;;;;;;7.20;5.50;;;;;;;1.88;87.05;101125.20;109722;1238;62085;-69
2023/04/04 03:10:34;;;;;;;7.40;5.30;;;;;;;1.82;87.25;101130.31;109906;1237;60162;-69
2023/04/04 03:13:04;;;;;;;10.70;6.50;;;;;;;1.76;87.52;101136.34;109935;1241;73153;-69
2023/04/04 03:15:33;;;;;;;10.60;6.00;;;;;;;1.67;88.39;101135.22;109989;1237;62269;-69
2023/04/04 03:18:03;;;;;;;8.30;5.70;;;;;;;1.63;88.89;101138.63;109913;1238;68725;-70
2023/04/04 03:20:33;;;;;;;7.70;5.40;;;;;;;1.59;89.26;101144.58;109902;1238;72413;-71
2023/04/04 03:23:02;;;;;;;8.60;5.80;;;;;;;1.50;90.55;101143.95;109762;1245;59729;-70
2023/04/04 03:25:31;;;;;;;8.60;5.50;;;;;;;1.41;89.91;101136.50;109925;1241;59660;-69
2023/04/04 03:28:08;;;;;;;9.00;5.70;;;;;;;1.41;90.44;101144.05;109914;1238;74282;-70
2023/04/04 03:30:37;;;;;;;8.80;6.00;;;;;;;1.30;92.93;101142.45;109928;1238;71846;-67
2023/04/04 03:33:07;;;;;;;8.50;6.30;;;;;;;1.28;92.58;101146.27;109911;1238;71221;-67
2023/04/04 03:35:39;;;;;;;8.60;6.10;;;;;;;1.22;92.64;101149.36;109901;1237;71744;-67
2023/04/04 03:38:09;;;;;;;10.40;6.10;;;;;;;1.17;92.63;101144.34;109767;1244;61702;-67
2023/04/04 03:40:38;;;;;;;9.90;6.40;;;;;;;1.10;93.46;101139.39;109902;1241;59779;-68
2023/04/04 03:43:11;;;;;;;10.50;6.40;;;;;;;1.04;94.00;101138.83;109892;1238;73134;-68
2023/04/04 03:45:41;;;;;;;8.50;5.80;;;;;;;0.99;95.13;101132.29;109812;1238;71526;-68
2023/04/04 03:48:10;;;;;;;9.10;6.60;;;;;;;1.00;94.56;101126.95;110040;1237;69561;-68
2023/04/04 03:50:39;;;;;;;12.30;7.00;;;;;;;0.91;95.56;101120.67;109988;1239;72872;-68
2023/04/04 03:53:11;;;;;;;9.80;7.00;;;;;;;0.92;95.73;101108.46;109929;1241;61448;-70
2023/04/04 03:55:43;;;;;;;11.30;7.70;;;;;;;0.83;97.43;101106.11;109806;1238;60859;-69
2023/04/04 03:58:14;;;;;;;10.30;6.10;;;;;;;0.83;97.10;101098.07;109945;1238;75528;-69
2023/04/04 04:00:43;;;;;;;11.50;6.90;;;;;;;0.77;98.92;101091.17;110008;1241;70702;-69
2023/04/04 04:03:12;;;;;;;10.20;7.20;;;;;;;0.86;98.04;101091.31;110088;1239;69618;-68
2023/04/04 04:05:44;;;;;;;13.10;7.70;;;;;;;0.80;99.23;101094.71;110021;1242;71875;-69
2023/04/04 04:08:13;;;;;;;10.40;7.00;;;;;;;0.85;98.92;101095.10;109916;1241;60999;-69
2023/04/04 04:10:41;;;;;;;11.10;7.70;;;;;;;0.83;99.06;101100.82;110074;1238;61483;-68
2023/04/04 04:13:10;;;;;;;10.00;6.90;;;;;;;0.78;99.74;101100.59;110067;1238;73060;-70
2023/04/04 04:15:39;;;;;;;9.80;6.90;;;;;;;0.84;99.28;101105.75;109965;1238;70274;-65
2023/04/04 04:18:10;;;;;;;11.90;7.90;;;;;;;0.78;99.65;101105.05;109976;1238;70470;-68
2023/04/04 04:20:39;;;;;;;11.40;7.00;;;;;;;0.64;100.00;101108.82;109747;1241;74150;-71
2023/04/04 04:23:08;;;;;;;10.80;6.70;;;;;;;0.71;100.00;101113.80;109696;1242;61559;-68
2023/04/04 04:25:36;;;;;;;12.30;7.80;;;;;;;0.73;100.00;101115.97;109694;1241;60791;-69
2023/04/04 04:28:15;;;;;;;13.90;8.00;;;;;;;0.70;100.00;101122.06;109894;1241;74203;-68
2023/04/04 04:30:45;;;;;;;11.30;7.80;;;;;;;0.71;100.00;101124.59;109632;1244;71971;-68
2023/04/04 04:33:14;;;;;;;10.60;6.60;;;;;;;0.70;100.00;101127.88;109662;1240;68299;-68
2023/04/04 04:35:57;;;;;;;11.90;7.80;;;;;;;0.66;100.00;101133.64;109677;1242;74628;-67
2023/04/04 04:38:31;;;;;;;13.90;8.10;;;;;;;0.59;100.00;101126.98;109654;1242;62496;-69
2023/04/04 04:41:00;;;;;;;14.70;9.40;;;;;;;0.66;100.00;101137.41;109632;1239;60318;-69
2023/04/04 04:43:35;;;;;;;15.50;9.10;;;;;;;0.68;100.00;101139.94;109538;1241;72911;-69
2023/04/04 04:46:04;;;;;;;12.40;8.00;;;;;;;0.67;100.00;101139.09;109825;1241;69805;-69
2023/04/04 04:48:34;;;;;;;12.40;7.30;;;;;;;0.64;100.00;101136.61;109701;1239;68612;-69
2023/04/04 04:51:03;;;;;;;13.20;8.00;;;;;;;0.64;100.00;101134.05;109438;1244;71081;-69
2023/04/04 04:53:39;;;;;;;13.20;8.70;;;;;;;0.63;100.00;101133.20;109620;1242;59663;-70
2023/04/04 04:56:08;;;;;;;13.70;8.10;;;;;;;0.62;100.00;101132.38;109626;1239;59505;-69
2023/04/04 04:58:38;;;;;;;16.70;9.80;;;;;;;0.62;100.00;101133.74;109696;1241;74272;-69
2023/04/04 05:01:08;;;;;;;12.20;8.40;;;;;;;0.62;100.00;101129.46;109588;1241;73460;-68
2023/04/04 05:03:39;;;;;;;11.60;7.00;;;;;;;0.62;100.00;101123.96;109634;1239;68384;-68
2023/04/04 05:06:10;;;;;;;13.00;8.80;;;;;;;0.61;100.00;101121.78;109695;1241;71689;-71
2023/04/04 05:08:39;;;;;;;12.20;8.30;;;;;;;0.57;100.00;101118.60;109813;1242;60895;-83
2023/04/04 05:11:32;;;;;;;16.70;8.80;;;;;;;0.54;100.00;101119.35;109735;1241;58901;-68
2023/04/04 05:14:02;;;;;;;13.40;8.80;;;;;;;0.56;100.00;101117.09;109881;1242;71637;-69
2023/04/04 05:16:35;;;;;;;15.30;9.70;;;;;;;0.51;100.00;101114.64;109925;1241;70286;-69
2023/04/04 05:19:04;;;;;;;14.10;9.20;;;;;;;0.43;100.00;101115.86;109928;1240;69263;-68
2023/04/04 05:21:37;;;;;;;;;;;;;;;0.45;100.00;101113.94;109874;1238;71126;-68
2023/04/04 05:24:07;;;;;;;13.30;8.50;;;;;;;0.43;100.00;101116.05;109812;1242;60354;-69
2023/04/04 05:26:38;;;;;;;12.10;8.20;;;;;;;0.32;100.00;101116.28;109703;1238;60441;-69
2023/04/04 05:29:07;;;;;;;13.80;8.30;;;;;;;0.37;100.00;101113.79;109820;1238;74977;-68
2023/04/04 05:31:37;;;;;;;14.30;9.40;;;;;;;0.32;100.00;101112.86;109769;1238;72621;-69
2023/04/04 05:34:09;;;;;;;19.50;9.90;;;;;;;0.32;100.00;101110.13;109740;1238;70816;-69
2023/04/04 05:36:38;;;;;;;19.40;9.90;;;;;;;0.29;100.00;101101.63;109738;1238;73086;-68
2023/04/04 05:39:07;;;;;;;18.30;10.30;;;;;;;0.30;100.00;101102.64;109552;1241;61531;-69
2023/04/04 05:41:39;;;;;;;16.50;9.80;;;;;;;0.33;100.00;101103.08;109680;1239;61790;-70
2023/04/04 05:44:12;;;;;;;15.30;9.40;;;;;;;0.34;100.00;101100.48;109663;1242;72856;-70
2023/04/04 05:46:41;;;;;;;13.20;8.80;;;;;;;0.33;100.00;101095.52;109738;1241;72211;-70
2023/04/04 05:49:10;;;;;;;16.10;9.40;;;;;;;0.35;100.00;101095.50;109666;1238;70852;-70
2023/04/04 05:51:41;;;;;;;16.40;9.60;;;;;;;0.34;100.00;101094.33;109915;1238;74169;-69
2023/04/04 05:54:15;;;;;;;16.30;8.80;;;;;;;0.29;100.00;101092.73;109839;1241;60474;-69
2023/04/04 05:56:44;;;;;;;15.50;9.40;;;;;;;0.30;100.00;101090.13;109864;1240;58857;-69
2023/04/04 05:59:22;;;;;;;12.90;8.60;;;;;;;0.30;100.00;101090.30;109889;1238;74568;-69
2023/04/04 06:01:58;;;;;;;13.90;9.50;;;;;;;0.30;100.00;101093.71;109875;1238;71103;-68
2023/04/04 06:04:28;;;;;;;16.70;9.50;;;;;;;0.28;100.00;101089.85;109647;1238;70118;-69
2023/04/04 06:06:59;;;;;;;14.50;8.70;;;;;;;0.33;100.00;101092.27;109764;1243;71663;-69
2023/04/04 06:09:28;;;;;;;16.00;9.60;;;;;;;0.32;100.00;101088.55;109743;1242;62128;-69
2023/04/04 06:11:57;;;;;;;18.60;10.60;;;;;;;0.30;100.00;101095.79;109876;1238;61772;-69
2023/04/04 06:14:27;;;;;;;14.60;9.30;;;;;;;0.30;100.00;101094.94;109904;1237;73157;-69
2023/04/04 06:16:57;;;;;;;16.20;10.10;;;;;;;0.35;100.00;101100.13;109918;1238;72948;-70
2023/04/04 06:19:26;;;;;;;16.70;9.40;;;;;;;0.28;100.00;101099.94;109888;1238;71702;-69
2023/04/04 06:21:55;;;;;;;14.00;8.80;;;;;;;0.36;100.00;101101.30;109720;1238;75226;-69
2023/04/04 06:24:26;;;;;;;16.40;10.00;;;;;;;0.34;100.00;101105.46;109744;1243;60857;-69
2023/04/04 06:26:55;;;;;;;15.40;9.50;;;;;;;0.38;100.00;101110.83;109750;1239;60452;-69
2023/04/04 06:29:26;;;;;;;13.10;8.90;;;;;;;0.40;100.00;101115.60;109843;1238;74297;-69
2023/04/04 06:31:57;;;;;;;13.30;9.30;;;;;;;0.37;100.00;101120.80;109771;1238;72592;-69
2023/04/04 06:34:35;;;;;;;14.90;8.90;;;;;;;0.37;100.00;101126.27;109829;1242;60341;-69
2023/04/04 06:37:05;;;;;;;12.90;7.80;;;;;;;0.37;100.00;101137.08;109728;1238;73882;-69
2023/04/04 06:39:40;;;;;;;13.00;8.50;;;;;;;0.38;100.00;101134.48;109719;1244;59911;-68
2023/04/04 06:42:18;;;;;;;15.00;9.60;;;;;;;0.32;100.00;101144.73;109953;1238;61035;-69
2023/04/04 06:44:49;;;;;;;11.80;8.00;;;;;;;0.34;100.00;101148.30;109619;1247;72878;-68
2023/04/04 06:47:20;;;;;;;13.00;8.50;;;;;;;0.32;100.00;101151.77;109783;1237;71473;-68
2023/04/04 06:49:49;;;;;;;12.60;8.10;;;;;;;0.29;100.00;101152.86;109784;1238;69012;-68
2023/04/04 06:52:18;;;;;;;13.20;8.30;;;;;;;0.29;100.00;101155.27;109525;1238;72976;-67
2023/04/04 06:54:47;;;;;;;12.50;7.70;;;;;;;0.24;100.00;101155.73;109597;1244;60561;-67
2023/04/04 06:57:17;;;;;;;12.70;7.90;;;;;;;0.22;100.00;101157.29;109704;1238;58640;-68
2023/04/04 06:59:47;;;;;;;11.60;6.90;;;;;;;0.17;100.00;101158.44;109784;1238;74168;-66
2023/04/04 07:02:15;;;;;;;16.40;10.50;;;;;;;0.08;100.00;101157.61;109735;1238;71710;-68
2023/04/04 07:04:45;;;;;;;14.40;8.90;;;;;;;0.06;100.00;101155.92;109871;1238;70719;-69
2023/04/04 07:07:14;;;;;;;23.20;12.80;;;;;;;0.06;100.00;101154.40;109625;1245;74503;-69
2023/04/04 07:09:43;;;;;;;22.60;12.10;;;;;;;0.10;100.00;101151.07;109758;1242;61978;-68
2023/04/04 07:12:12;;;;;;;20.60;11.40;;;;;;;0.09;100.00;101143.02;109845;1242;60236;-68
2023/04/04 07:14:41;;;;;;;21.80;12.80;;;;;;;0.11;100.00;101144.52;109565;1245;72347;-69
2023/04/04 07:17:10;;;;;;;20.70;11.80;;;;;;;0.03;100.00;101139.75;109888;1242;70287;-69
2023/04/04 07:19:52;;;;;;;15.00;8.60;;;;;;;0.05;100.00;101135.41;109867;1241;60037;-69
2023/04/04 07:22:21;;;;;;;11.70;6.80;;;;;;;0.09;100.00;101137.02;109815;1242;72498;-70
2023/04/04 07:24:50;;;;;;;12.60;8.60;;;;;;;0.13;100.00;101140.02;109527;1247;60519;-69
2023/04/04 07:27:19;;;;;;;10.60;6.30;;;;;;;0.21;100.00;101141.37;109843;1238;60902;-68
2023/04/04 07:29:48;;;;;;;10.80;6.30;;;;;;;0.21;100.00;101144.47;109859;1238;74808;-74
2023/04/04 07:32:16;;;;;;;12.80;8.60;;;;;;;0.18;100.00;101145.05;109873;1238;71809;-67
2023/04/04 07:34:46;;;;;;;13.20;9.20;;;;;;;0.15;100.00;101140.33;109724;1238;70756;-68
2023/04/04 07:37:15;;;;;;;15.70;9.00;;;;;;;0.11;100.00;101141.09;109716;1244;73991;-69
2023/04/04 07:39:44;;;;;;;13.60;9.20;;;;;;;0.10;100.00;101138.03;109804;1243;60834;-66
2023/04/04 07:42:13;;;;;;;12.30;8.20;;;;;;;0.09;100.00;101140.11;109972;1242;59010;-65
2023/04/04 07:44:42;;;;;;;12.00;7.90;;;;;;;0.07;100.00;101144.09;109976;1242;72345;-64
2023/04/04 07:47:11;;;;;;;13.80;8.20;;;;;;;0.03;100.00;101144.36;109977;1238;70763;-66
2023/04/04 07:49:40;;;;;;;8.80;5.60;;;;;;;0.09;100.00;101150.55;109976;1238;70152;-66
2023/04/04 07:52:09;;;;;;;15.70;8.50;;;;;;;0.11;100.00;101153.61;110078;1238;73355;-66
2023/04/04 07:54:39;;;;;;;13.10;7.80;;;;;;;0.10;100.00;101152.58;110028;1241;62500;-65
2023/04/04 07:57:08;;;;;;;15.50;9.00;;;;;;;0.06;100.00;101155.77;109828;1244;61716;-66
2023/04/04 07:59:37;;;;;;;12.30;7.40;;;;;;;0.07;100.00;101153.35;109962;1238;72847;-67
2023/04/04 08:02:06;;;;;;;13.20;7.60;;;;;;;0.05;100.00;101149.64;110016;1241;70269;-68
2023/04/04 08:04:35;;;;;;;17.10;9.60;;;;;;;0.04;100.00;101149.14;110097;1238;68749;-66
2023/04/04 08:07:04;;;;;;;12.90;8.20;;;;;;;-0.02;100.00;101147.02;110082;1241;71936;-66
2023/04/04 08:09:35;;;;;;;15.70;9.10;;;;;;;0.05;100.00;101145.34;110003;1241;58804;-66
2023/04/04 08:12:07;;;;;;;14.80;9.50;;;;;;;0.13;100.00;101152.20;109742;1238;60674;-67
2023/04/04 08:14:36;;;;;;;14.90;9.60;;;;;;;0.07;100.00;101146.33;110042;1238;72793;-66
2023/04/04 08:17:05;;;;;;;13.70;8.90;;;;;;;0.10;100.00;101145.73;109954;1241;70261;-67
2023/04/04 08:19:34;;;;;;;12.00;8.00;;;;;;;0.10;100.00;101140.77;110057;1238;70417;-66
2023/04/04 08:22:02;;;;;;;13.70;8.30;;;;;;;0.11;100.00;101139.73;110038;1241;73680;-65
2023/04/04 08:24:31;;;;;;;14.80;7.70;;;;;;;0.08;100.00;101135.67;110055;1238;59196;-65
2023/04/04 08:27:00;;;;;;;14.60;9.30;;;;;;;0.10;100.00;101132.04;110071;1238;60185;-68
2023/04/04 08:29:33;;;;;;;;;;;;;;;0.12;100.00;101129.09;109859;1238;71800;-66
2023/04/04 08:32:02;;;;;;;14.70;9.40;;;;;;;0.14;100.00;101121.33;110046;1238;69548;-67
2023/04/04 08:34:31;;;;;;;13.20;9.10;;;;;;;0.15;100.00;101119.42;110014;1238;68647;-69
2023/04/04 08:37:00;;;;;;;13.70;8.60;;;;;;;0.15;100.00;101111.38;110037;1240;72828;-68
2023/04/04 08:39:29;;;;;;;13.60;8.20;;;;;;;0.17;100.00;101111.67;109925;1241;60480;-74
2023/04/04 08:42:05;;;;;;;11.60;7.60;;;;;;;0.19;100.00;101110.08;109803;1238;61853;-72
2023/04/04 08:44:39;;;;;;;16.70;10.30;;;;;;;0.24;100.00;101110.99;109584;1238;75421;-70
2023/04/04 08:47:09;;;;;;;16.40;9.50;;;;;;;0.23;100.00;101108.98;109774;1238;70809;-67
2023/04/04 08:49:43;;;;;;;15.50;9.30;;;;;;;0.27;100.00;101106.47;109913;1238;69609;-66
2023/04/04 08:52:20;;;;;;;15.00;10.00;;;;;;;0.23;100.00;101112.39;109889;1238;71089;-70
2023/04/04 08:54:51;;;;;;;16.20;8.50;;;;;;;0.15;100.00;101106.23;109672;1242;60008;-69
2023/04/04 08:57:21;;;;;;;17.00;9.10;;;;;;;0.10;100.00;101101.55;109740;1238;60328;-69
2023/04/04 08:59:50;;;;;;;19.00;10.60;;;;;;;0.11;100.00;101098.45;109743;1239;73724;-70
2023/04/04 09:02:28;;;;;;;18.20;10.80;;;;;;;0.20;100.00;101099.96;110043;1238;70210;-68
2023/04/04 09:04:59;;;;;;;16.60;9.10;;;;;;;0.14;100.00;101104.02;109839;1239;68621;-67
2023/04/04 09:07:35;;;;;;;19.00;10.10;;;;;;;0.19;100.00;101109.23;109840;1238;71855;-67
2023/04/04 09:10:11;;;;;;;14.90;8.50;;;;;;;0.20;100.00;101113.66;109723;1241;59760;-68
2023/04/04 09:12:46;;;;;;;12.70;7.60;;;;;;;0.22;100.00;101120.30;109661;1238;58827;-66
2023/04/04 09:15:16;;;;;;;8.30;4.60;;;;;;;0.21;100.00;101122.55;109777;1238;74429;-67
2023/04/04 09:17:45;;;;;;;16.60;8.90;;;;;;;0.11;100.00;101127.73;109913;1241;70626;-68
2023/04/04 09:20:43;;;;;;;19.50;10.30;;;;;;;0.12;100.00;101136.44;110058;1238;68618;-69
2023/04/04 09:23:19;;;;;;;20.50;10.20;;;;;;;0.14;100.00;101138.80;109969;1238;71151;-68
2023/04/04 09:25:54;;;;;;;21.40;10.20;;;;;;;0.12;100.00;101137.30;109911;1241;61036;-69
2023/04/04 09:28:27;;;;;;;20.60;11.50;;;;;;;0.08;100.00;101141.86;109881;1238;59797;-68
2023/04/04 09:30:56;;;;;;;14.10;6.30;;;;;;;0.11;100.00;101146.75;109614;1241;72457;-68
2023/04/04 09:33:25;;;;;;;21.00;11.00;;;;;;;0.14;100.00;101148.05;109842;1238;72526;-68
2023/04/04 09:35:58;;;;;;;24.00;13.10;;;;;;;0.15;100.00;101147.17;109731;1238;71433;-69
2023/04/04 09:38:29;;;;;;;27.40;12.40;;;;;;;0.13;100.00;101143.80;109834;1240;73560;-69
2023/04/04 09:40:58;;;;;;;30.40;14.50;;;;;;;0.16;100.00;101142.52;109761;1241;60312;-68
2023/04/04 09:43:29;;;;;;;21.90;10.30;;;;;;;0.23;100.00;101136.73;109844;1238;60544;-67
2023/04/04 09:46:00;;;;;;;25.30;12.30;;;;;;;0.21;100.00;101131.79;109843;1238;74883;-68
2023/04/04 09:48:35;;;;;;;26.30;12.90;;;;;;;0.24;100.00;101124.87;109767;1240;72709;-68
2023/04/04 09:51:11;;;;;;;27.30;13.50;;;;;;;0.21;100.00;101114.67;109755;1241;68660;-68
2023/04/04 09:53:40;;;;;;;27.60;14.60;;;;;;;0.14;100.00;101109.52;109736;1241;71897;-67
2023/04/04 09:56:10;;;;;;;20.30;9.80;;;;;;;0.15;100.00;101104.18;109730;1241;61452;-71
2023/04/04 09:58:39;;;;;;;23.70;11.60;;;;;;;0.11;100.00;101096.58;109628;1241;61830;-71
2023/04/04 10:01:28;;;;;;;29.00;14.30;;;;;;;0.10;100.00;101092.30;109884;1239;74940;-69
2023/04/04 10:03:57;;;;;;;27.90;13.70;;;;;;;0.16;100.00;101091.98;109727;1240;72719;-67
2023/04/04 10:06:26;;;;;;;28.20;12.90;;;;;;;0.13;100.00;101093.78;109871;1241;70510;-66
2023/04/04 10:08:57;;;;;;;23.70;10.90;;;;;;;0.19;100.00;101088.34;109887;1239;74174;-73
2023/04/04 10:11:34;;;;;;;26.70;12.00;;;;;;;0.24;100.00;101084.95;109864;1238;63055;-72
2023/04/04 10:14:03;;;;;;;21.90;11.70;;;;;;;0.29;100.00;101085.70;109683;1240;60440;-70
2023/04/04 10:16:36;;;;;;;26.40;12.40;;;;;;;0.32;100.00;101088.55;109753;1241;73024;-68
2023/04/04 10:19:07;;;;;;;25.80;11.90;;;;;;;0.31;100.00;101082.41;109621;1241;72112;-71
2023/04/04 10:21:36;;;;;;;28.30;13.20;;;;;;;0.28;100.00;101080.75;109756;1240;69363;-68
2023/04/04 10:24:08;;;;;;;27.00;13.30;;;;;;;0.22;100.00;101081.74;109677;1241;72965;-67
2023/04/04 10:26:37;;;;;;;21.80;12.00;;;;;;;0.24;100.00;101072.11;109738;1238;61156;-68
2023/04/04 10:29:06;;;;;;;23.00;11.70;;;;;;;0.22;100.00;101064.61;109815;1238;61137;-69
2023/04/04 10:31:40;;;;;;;31.00;13.10;;;;;;;0.23;100.00;101067.67;109743;1238;72503;-69
2023/04/04 10:34:37;;;;;;;27.90;13.00;;;;;;;0.18;100.00;101071.06;109740;1238;72202;-68
2023/04/04 10:37:17;;;;;;;29.10;14.00;;;;;;;0.23;100.00;101072.13;109688;1238;70224;-68
2023/04/04 10:40:09;;;;;;;31.40;14.30;;;;;;;0.25;100.00;101059.40;109669;1238;74071;-69
2023/04/04 10:42:42;;;;;;;32.60;15.50;;;;;;;0.28;100.00;101050.26;109680;1238;61059;-68
2023/04/04 10:45:16;;;;;;;32.20;14.60;;;;;;;0.26;100.00;101047.23;109666;1238;61223;-68
2023/04/04 10:47:49;;;;;;;36.60;15.60;;;;;;;0.30;100.00;101041.84;109544;1238;73625;-69
2023/04/04 10:50:19;;;;;;;53.50;25.90;;;;;;;0.41;100.00;101041.89;109551;1238;71240;-69
2023/04/04 10:52:49;;;;;;;47.10;22.20;;;;;;;0.47;100.00;101041.05;109806;1237;68675;-69
2023/04/04 10:55:18;;;;;;;34.40;16.30;;;;;;;0.47;100.00;101039.52;109528;1238;70950;-69
2023/04/04 10:57:51;;;;;;;36.50;17.50;;;;;;;0.47;100.00;101036.06;109584;1241;59676;-70
2023/04/04 11:00:25;;;;;;;35.50;16.70;;;;;;;0.47;100.00;101029.05;109604;1241;59650;-69
2023/04/04 11:03:00;;;;;;;33.20;15.40;;;;;;;0.55;100.00;101020.10;109763;1238;74356;-70
2023/04/04 11:06:08;;;;;;;40.90;21.30;;;;;;;0.53;100.00;101012.25;109752;1238;71791;-68
2023/04/04 11:08:39;;;;;;;46.30;20.70;;;;;;;0.42;100.00;101002.95;109950;1238;68245;-68
2023/04/04 11:11:08;;;;;;;47.50;22.70;;;;;;;0.34;100.00;100991.51;109844;1238;73110;-68
2023/04/04 11:14:02;;;;;;;32.20;14.70;;;;;;;0.51;100.00;100988.84;109959;1238;60195;-68
2023/04/04 11:16:45;;;;;;;37.30;17.10;;;;;;;0.34;100.00;100985.51;109848;1237;60547;-68
2023/04/04 11:19:16;;;;;;;33.40;14.80;;;;;;;0.40;100.00;100977.83;109979;1238;72381;-69
2023/04/04 11:21:45;;;;;;;33.40;15.60;;;;;;;0.50;100.00;100963.16;109844;1238;70979;-69
2023/04/04 11:24:15;;;;;;;35.80;14.50;;;;;;;0.58;100.00;100944.80;109548;1242;68721;-68
2023/04/04 11:26:44;;;;;;;36.30;14.20;;;;;;;0.57;100.00;100936.08;109510;1238;365823;-68
2023/04/04 11:29:40;;;;;;;30.30;13.20;;;;;;;0.49;100.00;100935.59;109795;1237;59991;-68
2023/04/04 11:32:32;;;;;;;35.20;14.20;;;;;;;0.42;100.00;100914.90;109824;1237;61853;-69
2023/04/04 11:35:05;;;;;;;30.00;13.70;;;;;;;0.45;100.00;100890.46;109885;1238;74410;-69